Terminal Aerodrome Forecast
Issued by NWS

Home | Current Version | Previous Version | Text Only | Print | Product List | Glossary On
Versions: 1 2 3 4 5 6 7 8 9 10 11 12 13 14 15 16 17 18 19 20 21 22 23 24 25 26 27 28 29
000
FTUS41 KBUF 301048 AAB
TAFJHW
TAF AMD
KJHW 301048Z 3011/0106 11005KT P6SM VCTS BKN025CB
      TEMPO 3011/3013 3SM SHRA OVC012
     FM301600 20009KT 6SM -SHRA VCTS OVC025CB
     FM302100 21007KT P6SM VCSH OVC025
     FM010100 20004KT P6SM VCSH BKN070
      AMD LTD TO CLD VIS AND WIND=

USA.gov is the U.S. government's official web portal to all federal, state and local government web resources and services.